Terminal Aerodrome Forecast
Issued by NWS Wilmington, OH

Current Version | Previous Version | Text Only | Print | Product List | Glossary Off
Versions: 1 2 3 4 5 6 7 8 9 10 11 12 13 14 15 16 17 18

000
FTUS41 KILN 041100
TAFDAY
TAF
KDAY 041131Z 0412/0512 19008KT P6SM FEW150
     FM041500 22012G22KT P6SM SCT050 BKN150
     FM041800 22010G20KT P6SM VCTS BKN050CB
     FM042300 22010KT P6SM VCSH BKN060 BKN250=

USA.gov is the U.S. government's official web portal to all federal, state and local government web resources and services.